Time;durP1;ratioP1;P1;durP2;ratioP2;P2;SDS_P1;SDS_P2;PMS_P1;PMS_P2;Temp;Humidity;BMP_temperature;BMP_pressure;BME280_temperature;BME280_humidity;BME280_pressure;Samples;Min_cycle;Max_cycle;Signal;HPM_P1;HPM_P2
2021/01/30 00:01:14;;;;;;;7.32;1.40;;;;;;;6.52;85.79;99170.44;5012421;28;20104;-53
2021/01/30 00:03:41;;;;;;;4.32;1.23;;;;;;;6.53;85.58;99158.31;5016005;28;20392;-48
2021/01/30 00:06:07;;;;;;;4.20;1.20;;;;;;;6.55;85.79;99157.94;5012645;28;20206;-52
2021/01/30 00:08:34;;;;;;;7.13;2.13;;;;;;;6.54;85.88;99146.13;4992497;28;20046;-50
2021/01/30 00:11:00;;;;;;;6.35;1.88;;;;;;;6.51;85.32;99135.06;5016397;28;20064;-51
2021/01/30 00:13:27;;;;;;;9.93;2.10;;;;;;;6.49;85.54;99138.16;5011140;28;20104;-50
2021/01/30 00:15:53;;;;;;;4.10;1.20;;;;;;;6.50;85.30;99127.97;5022126;28;20128;-52
2021/01/30 00:18:19;;;;;;;8.95;2.00;;;;;;;6.51;85.28;99129.56;4998248;28;20073;-53
2021/01/30 00:20:46;;;;;;;8.35;2.10;;;;;;;6.52;85.42;99120.97;5011333;28;20038;-48
2021/01/30 00:23:12;;;;;;;8.65;1.92;;;;;;;6.50;85.48;99122.47;5011292;28;20069;-47
2021/01/30 00:25:42;;;;;;;5.65;1.50;;;;;;;6.47;85.34;99118.47;5011133;28;20152;-50
2021/01/30 00:28:09;;;;;;;11.65;2.47;;;;;;;6.48;85.36;99119.28;5005727;28;20085;-52
2021/01/30 00:30:36;;;;;;;8.48;2.35;;;;;;;6.50;85.23;99112.28;5001725;28;20396;-50
2021/01/30 00:33:06;;;;;;;9.20;2.20;;;;;;;6.48;85.29;99100.84;5012019;28;20038;-49
2021/01/30 00:35:34;;;;;;;9.95;2.35;;;;;;;6.47;85.32;99101.19;5010275;28;20480;-48
2021/01/30 00:38:02;;;;;;;8.85;2.38;;;;;;;6.48;85.27;99098.09;5010009;28;20053;-52
2021/01/30 00:40:29;;;;;;;11.10;2.30;;;;;;;6.49;85.19;99091.44;5012281;28;20423;-50
2021/01/30 00:42:56;;;;;;;11.23;2.50;;;;;;;6.50;85.38;99093.03;5014517;28;20045;-50
2021/01/30 00:45:26;;;;;;;7.10;2.20;;;;;;;6.49;85.05;99083.19;5024050;28;20076;-51
2021/01/30 00:47:55;;;;;;;6.07;2.38;;;;;;;6.48;85.02;99076.09;5031600;28;20049;-48
2021/01/30 00:50:22;;;;;;;6.55;2.53;;;;;;;6.45;85.44;99076.81;5020968;28;20042;-51
2021/01/30 00:52:51;;;;;;;9.48;3.03;;;;;;;6.44;85.26;99072.47;5013616;28;20045;-51
2021/01/30 00:55:21;;;;;;;7.50;2.70;;;;;;;6.43;85.43;99053.59;5014030;28;20049;-48
2021/01/30 00:57:47;;;;;;;12.38;3.15;;;;;;;6.42;85.22;99058.28;5013770;28;20129;-48
2021/01/30 01:00:24;;;;;;;9.80;2.75;;;;;;;6.40;85.18;99057.84;5013722;28;20093;-50
2021/01/30 01:02:51;;;;;;;8.20;3.22;;;;;;;6.39;85.04;99056.25;5013169;28;20373;-53
2021/01/30 01:05:18;;;;;;;9.68;3.63;;;;;;;6.38;84.92;99049.16;5012826;28;20112;-52
2021/01/30 01:07:45;;;;;;;15.52;4.53;;;;;;;6.33;85.02;99046.69;5014018;28;20534;-48
2021/01/30 01:10:16;;;;;;;13.95;4.13;;;;;;;6.35;85.14;99033.41;5013656;28;20089;-51
2021/01/30 01:12:45;;;;;;;10.38;4.18;;;;;;;6.35;85.22;99027.91;5012316;28;20042;-49
2021/01/30 01:15:13;;;;;;;12.10;4.30;;;;;;;6.31;85.18;99027.00;5012625;28;20558;-52
2021/01/30 01:17:39;;;;;;;10.77;4.15;;;;;;;6.30;85.15;99027.38;5012629;28;20049;-51
2021/01/30 01:20:10;;;;;;;20.60;4.53;;;;;;;6.28;85.34;99021.44;4995869;28;20095;-53
2021/01/30 01:22:36;;;;;;;10.65;4.38;;;;;;;6.27;85.42;99017.09;5012507;28;20388;-53
2021/01/30 01:25:04;;;;;;;12.80;4.63;;;;;;;6.24;85.23;99015.06;5012971;28;20074;-48
2021/01/30 01:27:33;;;;;;;13.40;4.90;;;;;;;6.22;85.55;99007.19;4995460;28;20423;-54
2021/01/30 01:30:00;;;;;;;17.08;4.95;;;;;;;6.20;85.50;99003.19;5012788;28;20129;-54
2021/01/30 01:32:26;;;;;;;17.63;5.43;;;;;;;6.18;85.52;98994.50;5021752;28;20119;-55
2021/01/30 01:34:53;;;;;;;15.02;5.45;;;;;;;6.18;85.54;99000.81;4983317;28;20419;-50
2021/01/30 01:37:19;;;;;;;16.33;4.97;;;;;;;6.18;85.55;98995.31;5025537;28;20060;-51
2021/01/30 01:39:45;;;;;;;13.65;5.93;;;;;;;6.18;85.54;98984.31;5027696;28;20501;-53
2021/01/30 01:42:16;;;;;;;9.57;4.97;;;;;;;6.16;85.83;98975.66;5032426;28;20045;-52
2021/01/30 01:44:44;;;;;;;17.50;5.20;;;;;;;6.14;85.85;98976.00;4995969;28;20435;-50
2021/01/30 01:47:30;;;;;;;25.73;7.25;;;;;;;6.13;85.50;98970.88;5023028;28;20125;-50
2021/01/30 01:50:04;;;;;;;11.45;3.95;;;;;;;6.09;85.62;98976.28;5021654;28;20038;-51
2021/01/30 01:52:33;;;;;;;9.68;4.53;;;;;;;6.09;85.72;98961.72;5017114;28;20129;-53
2021/01/30 01:55:21;;;;;;;15.55;5.63;;;;;;;6.09;86.01;98967.22;5013267;28;20515;-51
2021/01/30 01:57:53;;;;;;;12.52;5.28;;;;;;;6.03;86.33;98944.75;5012418;28;20124;-49
2021/01/30 02:00:21;;;;;;;12.93;4.80;;;;;;;6.03;86.17;98939.28;5021755;28;20097;-53
2021/01/30 02:02:50;;;;;;;9.93;4.53;;;;;;;5.98;86.31;98949.75;5029596;28;20483;-52
2021/01/30 02:05:29;;;;;;;15.80;5.65;;;;;;;5.92;87.24;98940.19;5014851;28;20053;-53
2021/01/30 02:07:59;;;;;;;18.25;6.25;;;;;;;5.92;86.64;98926.44;5029478;28;20041;-50
2021/01/30 02:10:28;;;;;;;13.40;5.72;;;;;;;5.92;86.63;98931.94;5012994;28;20786;-49
2021/01/30 02:13:01;;;;;;;15.90;5.70;;;;;;;5.86;86.85;98931.41;5020220;28;20121;-54
2021/01/30 02:15:29;;;;;;;16.30;6.03;;;;;;;5.83;87.39;98934.03;5016036;28;20053;-52
2021/01/30 02:18:13;;;;;;;22.48;7.38;;;;;;;5.80;88.17;98929.28;5010390;28;20074;-50
2021/01/30 02:21:30;;;;;;;18.10;7.45;;;;;;;5.80;88.13;98924.56;5017971;28;20041;-52
2021/01/30 02:24:21;;;;;;;16.98;6.97;;;;;;;5.77;88.10;98913.53;5005079;28;20041;-50
2021/01/30 02:27:19;;;;;;;22.00;8.07;;;;;;;5.74;88.16;98914.22;5029292;28;20041;-48
2021/01/30 02:30:04;;;;;;;25.85;9.38;;;;;;;5.74;88.27;98922.47;5012260;28;20044;-53
2021/01/30 02:32:55;;;;;;;28.38;10.07;;;;;;;5.73;88.26;98918.91;5016558;28;20128;-53
2021/01/30 02:35:59;;;;;;;24.27;10.65;;;;;;;5.70;88.56;98908.66;5012708;28;20053;-51
2021/01/30 02:38:29;;;;;;;34.60;13.88;;;;;;;5.71;88.11;98909.44;5014724;28;20046;-50
2021/01/30 02:41:04;;;;;;;40.50;14.50;;;;;;;5.70;88.22;98905.91;5012541;28;20140;-50
2021/01/30 02:43:38;;;;;;;40.88;16.30;;;;;;;5.72;88.55;98911.06;5018219;28;20042;-52
2021/01/30 02:46:12;;;;;;;58.13;19.65;;;;;;;5.70;88.57;98894.13;4995987;28;20042;-51
2021/01/30 02:48:44;;;;;;;39.47;15.80;;;;;;;5.69;88.73;98882.38;5027069;28;20042;-51
2021/01/30 02:51:17;;;;;;;44.13;15.43;;;;;;;5.66;88.73;98880.34;5010858;28;20057;-51
2021/01/30 02:53:52;;;;;;;33.70;14.23;;;;;;;5.69;88.97;98876.06;5012735;28;20057;-51
2021/01/30 02:56:20;;;;;;;41.17;16.20;;;;;;;5.67;89.26;98872.88;5031676;28;20080;-54
2021/01/30 02:58:54;;;;;;;36.88;15.77;;;;;;;5.67;88.82;98872.88;5029750;28;20494;-48
2021/01/30 03:01:20;;;;;;;33.58;12.90;;;;;;;5.66;89.02;98866.59;5029661;28;20041;-54
2021/01/30 03:03:48;;;;;;;33.03;13.05;;;;;;;5.66;89.38;98874.03;5029173;28;20053;-50
2021/01/30 03:06:37;;;;;;;33.42;12.52;;;;;;;5.63;89.69;98859.09;5027567;28;20073;-50
2021/01/30 03:09:20;;;;;;;38.47;12.68;;;;;;;5.65;89.13;98861.47;5015894;28;20514;-50
2021/01/30 03:12:05;;;;;;;27.73;11.25;;;;;;;5.63;89.52;98850.06;5015254;28;20045;-53
2021/01/30 03:14:38;;;;;;;27.73;11.25;;;;;;;5.60;89.24;98853.50;5030407;28;20041;-48
2021/01/30 03:17:06;;;;;;;34.97;11.10;;;;;;;5.64;89.27;98857.13;5026892;28;20543;-49
2021/01/30 03:19:34;;;;;;;31.10;11.20;;;;;;;5.63;89.23;98848.09;5025234;28;20048;-52
2021/01/30 03:22:10;;;;;;;31.08;11.57;;;;;;;5.60;89.44;98837.03;5004455;28;20054;-50
2021/01/30 03:24:44;;;;;;;34.47;11.30;;;;;;;5.61;89.50;98835.91;5010579;28;20578;-53
2021/01/30 03:27:22;;;;;;;30.98;11.77;;;;;;;5.59;89.85;98832.72;5020850;28;20030;-53
2021/01/30 03:29:50;;;;;;;25.63;9.05;;;;;;;5.58;89.85;98831.91;5021987;28;20068;-54
2021/01/30 03:32:18;;;;;;;32.63;10.65;;;;;;;5.58;89.61;98818.19;5010965;28;20449;-48
2021/01/30 03:34:49;;;;;;;36.55;11.60;;;;;;;5.55;90.08;98816.16;5024604;28;20077;-50
2021/01/30 03:37:17;;;;;;;31.90;11.90;;;;;;;5.54;90.15;98807.13;5014957;28;20163;-52
2021/01/30 03:39:43;;;;;;;32.40;12.10;;;;;;;5.54;89.87;98809.88;5011266;28;20076;-49
2021/01/30 03:42:10;;;;;;;38.45;13.27;;;;;;;5.56;90.28;98808.72;5011390;28;20095;-52
2021/01/30 03:44:36;;;;;;;35.38;13.82;;;;;;;5.54;90.45;98807.13;4991426;28;20046;-48
2021/01/30 03:47:03;;;;;;;32.92;14.20;;;;;;;5.52;90.40;98809.44;5016863;28;20076;-53
2021/01/30 03:49:30;;;;;;;46.45;15.02;;;;;;;5.53;90.65;98797.28;5013689;28;20041;-50
2021/01/30 03:51:57;;;;;;;38.83;14.63;;;;;;;5.56;90.46;98795.00;5022507;28;20041;-52
2021/01/30 03:54:23;;;;;;;35.80;15.05;;;;;;;5.52;90.73;98787.47;5018601;28;20365;-52
2021/01/30 03:56:50;;;;;;;35.85;14.63;;;;;;;5.51;90.72;98788.63;5010779;28;20050;-50
2021/01/30 03:59:20;;;;;;;44.95;15.57;;;;;;;5.56;90.35;98793.03;5000298;28;20107;-51
2021/01/30 04:01:47;;;;;;;38.42;16.75;;;;;;;5.55;90.79;98772.25;5020333;28;20129;-53
2021/01/30 04:04:15;;;;;;;45.05;17.85;;;;;;;5.53;90.86;98772.59;5012957;28;20128;-50
2021/01/30 04:06:49;;;;;;;43.03;16.52;;;;;;;5.52;91.01;98776.50;5014680;28;20466;-52
2021/01/30 04:09:18;;;;;;;28.10;14.32;;;;;;;5.50;90.68;98784.31;5019630;28;20124;-52
2021/01/30 04:11:50;;;;;;;40.13;15.38;;;;;;;5.51;91.05;98763.94;5015673;28;20045;-52
2021/01/30 04:14:17;;;;;;;36.90;15.65;;;;;;;5.49;90.65;98760.75;5015062;28;20546;-47
2021/01/30 04:16:44;;;;;;;42.10;14.93;;;;;;;5.50;91.12;98767.03;5014408;28;20559;-49
2021/01/30 04:19:10;;;;;;;40.65;16.58;;;;;;;5.48;91.03;98764.63;5014880;28;20073;-50
2021/01/30 04:21:36;;;;;;;41.38;15.52;;;;;;;5.47;90.80;98752.09;5015612;28;20077;-51
2021/01/30 04:24:03;;;;;;;42.90;16.25;;;;;;;5.46;91.34;98755.97;5015245;28;20049;-49
2021/01/30 04:26:30;;;;;;;45.53;16.30;;;;;;;5.47;91.19;98743.88;5025081;28;20046;-50
2021/01/30 04:28:56;;;;;;;39.13;15.68;;;;;;;5.47;90.87;98743.88;5014619;28;20108;-53
2021/01/30 04:31:23;;;;;;;32.40;14.73;;;;;;;5.46;91.23;98739.50;5019253;28;20053;-51
2021/01/30 04:33:50;;;;;;;37.33;13.73;;;;;;;5.47;91.21;98746.59;5013831;28;20585;-52
2021/01/30 04:36:18;;;;;;;34.58;12.15;;;;;;;5.46;91.10;98755.19;5014397;28;20136;-53
2021/01/30 04:38:45;;;;;;;40.38;15.00;;;;;;;5.44;91.20;98747.31;5031388;28;20133;-48
2021/01/30 04:41:49;;;;;;;29.80;15.32;;;;;;;5.39;91.50;98733.88;5023478;28;20080;-53
2021/01/30 04:44:38;;;;;;;22.55;9.95;;;;;;;5.39;91.76;98750.34;5015972;28;20134;-47
2021/01/30 04:47:29;;;;;;;30.25;12.95;;;;;;;5.39;91.80;98738.56;5030381;28;20373;-47
2021/01/30 04:50:25;;;;;;;27.65;11.00;;;;;;;5.40;91.75;98740.94;5025439;28;20072;-48
2021/01/30 04:53:20;;;;;;;33.67;10.88;;;;;;;5.39;91.56;98736.63;5016729;28;20047;-46
2021/01/30 04:56:13;;;;;;;34.53;13.45;;;;;;;5.36;91.51;98740.09;5010848;28;20129;-47
2021/01/30 04:58:58;;;;;;;77.22;15.80;;;;;;;5.37;91.58;98727.97;5013772;28;20523;-46
2021/01/30 05:01:36;;;;;;;23.70;9.45;;;;;;;5.35;91.55;98733.00;5023093;28;20104;-47
2021/01/30 05:04:27;;;;;;;22.63;10.38;;;;;;;5.33;91.64;98729.81;5024822;28;20037;-46
2021/01/30 05:06:56;;;;;;;18.13;8.95;;;;;;;5.32;91.50;98761.16;5002079;28;20073;-48
2021/01/30 05:09:49;;;;;;;22.80;9.60;;;;;;;5.32;91.61;98738.44;5020045;28;20035;-49
2021/01/30 05:12:28;;;;;;;30.90;10.57;;;;;;;5.31;91.46;98750.53;5005818;28;20502;-48
2021/01/30 05:15:15;;;;;;;21.35;8.82;;;;;;;5.31;91.62;98743.13;5019748;28;20040;-45
2021/01/30 05:17:57;;;;;;;24.95;8.75;;;;;;;5.33;91.34;98749.03;5030770;28;20091;-49
2021/01/30 05:20:27;;;;;;;26.30;8.35;;;;;;;5.31;91.16;98737.63;5014227;28;20044;-51
2021/01/30 05:22:54;;;;;;;21.85;9.88;;;;;;;5.30;91.43;98737.97;5014348;28;20034;-47
2021/01/30 05:25:23;;;;;;;18.73;6.90;;;;;;;5.30;91.40;98738.78;5018850;28;20073;-48
2021/01/30 05:28:15;;;;;;;22.83;6.85;;;;;;;5.27;91.85;98734.00;4995575;28;20119;-45
2021/01/30 05:31:11;;;;;;;27.00;7.40;;;;;;;5.25;91.59;98741.81;5015912;28;20037;-48
2021/01/30 05:33:44;;;;;;;21.00;6.40;;;;;;;5.23;91.73;98741.38;5029127;28;20068;-46
2021/01/30 05:36:21;;;;;;;;;;;;;;;5.14;91.83;98740.75;5026191;28;20049;-47
2021/01/30 05:39:05;;;;;;;20.35;6.50;;;;;;;5.11;91.61;98733.25;5012766;28;19983;-46
2021/01/30 05:41:31;;;;;;;28.42;7.13;;;;;;;5.11;91.37;98736.00;5008963;28;20076;-47
2021/01/30 05:44:11;;;;;;;20.98;5.88;;;;;;;5.10;91.82;98739.91;5032629;28;20080;-47
2021/01/30 05:46:39;;;;;;;27.70;6.82;;;;;;;5.07;91.81;98740.63;5014334;28;20044;-50
2021/01/30 05:49:13;;;;;;;31.90;8.77;;;;;;;5.05;91.85;98729.22;5031501;28;20549;-48
2021/01/30 05:51:41;;;;;;;17.00;5.65;;;;;;;5.04;91.66;98737.78;5019021;28;20439;-46
2021/01/30 05:54:07;;;;;;;26.60;7.18;;;;;;;5.02;91.99;98735.41;5021745;28;20124;-49
2021/01/30 05:56:39;;;;;;;26.15;8.55;;;;;;;5.00;91.75;98729.50;5012554;28;20132;-46
2021/01/30 05:59:11;;;;;;;23.05;6.93;;;;;;;5.01;91.73;98731.06;5027760;28;20132;-47
2021/01/30 06:01:37;;;;;;;34.70;10.40;;;;;;;5.04;91.91;98721.31;5025353;28;20124;-46
2021/01/30 06:04:07;;;;;;;29.85;8.48;;;;;;;5.05;92.12;98722.94;5021117;28;20317;-46
2021/01/30 06:06:40;;;;;;;26.00;8.00;;;;;;;5.03;91.73;98728.75;5016530;28;20041;-49
2021/01/30 06:09:28;;;;;;;22.52;6.78;;;;;;;4.99;91.92;98722.41;5022855;28;20052;-46
2021/01/30 06:11:54;;;;;;;25.15;8.13;;;;;;;4.96;92.21;98725.84;5011480;28;20038;-45
2021/01/30 06:14:37;;;;;;;18.98;7.35;;;;;;;4.95;92.16;98743.44;5017164;28;20069;-45
2021/01/30 06:17:14;;;;;;;25.05;7.50;;;;;;;4.92;92.42;98749.66;5012448;28;20124;-47
2021/01/30 06:19:40;;;;;;;29.75;7.88;;;;;;;4.94;92.10;98725.44;5019759;28;20046;-46
2021/01/30 06:22:25;;;;;;;23.83;7.22;;;;;;;4.94;92.33;98730.91;5012173;28;20077;-48
2021/01/30 06:24:51;;;;;;;29.10;7.05;;;;;;;4.92;91.91;98739.47;5011490;28;20069;-50
2021/01/30 06:27:29;;;;;;;27.33;7.25;;;;;;;4.88;92.03;98730.38;5011986;28;20103;-48
2021/01/30 06:30:20;;;;;;;24.92;6.05;;;;;;;4.87;91.96;98733.50;5019976;28;20045;-46
2021/01/30 06:32:55;;;;;;;18.33;5.88;;;;;;;4.87;91.79;98728.78;5020517;28;20129;-47
2021/01/30 06:35:30;;;;;;;33.13;7.20;;;;;;;4.87;92.11;98728.00;5013545;28;20093;-51
2021/01/30 06:38:12;;;;;;;14.20;5.47;;;;;;;4.84;91.88;98734.97;5031585;28;20132;-51
2021/01/30 06:40:51;;;;;;;25.20;6.80;;;;;;;4.84;91.90;98742.44;5017871;28;20046;-49
2021/01/30 06:43:42;;;;;;;25.40;6.45;;;;;;;4.80;92.04;98733.31;5016705;28;20050;-51
2021/01/30 06:46:15;;;;;;;18.83;6.32;;;;;;;4.74;91.99;98718.28;5013138;28;20516;-48
2021/01/30 06:48:49;;;;;;;14.02;4.10;;;;;;;4.70;92.13;98733.84;5026591;28;20396;-48
2021/01/30 06:51:25;;;;;;;10.38;3.25;;;;;;;4.67;92.23;98727.16;5011144;28;20072;-50
2021/01/30 06:53:51;;;;;;;17.15;5.18;;;;;;;4.69;91.85;98730.31;4992479;28;20082;-48
2021/01/30 06:56:26;;;;;;;25.75;5.50;;;;;;;4.67;91.97;98731.81;5028325;28;20034;-49
2021/01/30 06:59:03;;;;;;;27.23;6.57;;;;;;;4.69;91.87;98732.25;5030781;28;20104;-49
2021/01/30 07:01:56;;;;;;;25.48;6.47;;;;;;;4.67;91.89;98737.31;4992418;28;20046;-46
2021/01/30 07:04:53;;;;;;;23.00;4.18;;;;;;;4.66;92.24;98743.94;4984296;28;20053;-49
2021/01/30 07:07:27;;;;;;;19.35;5.13;;;;;;;4.63;92.05;98739.94;5014205;28;20129;-48
2021/01/30 07:10:06;;;;;;;15.85;4.82;;;;;;;4.61;91.99;98730.50;5018527;28;20037;-48
2021/01/30 07:12:35;;;;;;;23.70;4.22;;;;;;;4.57;92.10;98730.44;5026189;28;20400;-49
2021/01/30 07:15:06;;;;;;;21.02;5.53;;;;;;;4.58;92.05;98736.72;5010347;28;20050;-52
2021/01/30 07:17:50;;;;;;;19.13;4.07;;;;;;;4.55;92.19;98737.41;5026627;28;20448;-48
2021/01/30 07:20:54;;;;;;;11.30;3.78;;;;;;;4.54;92.12;98738.56;5015195;28;20048;-49
2021/01/30 07:23:58;;;;;;;13.02;5.57;;;;;;;4.56;92.17;98744.47;5010937;28;20492;-51
2021/01/30 07:27:02;;;;;;;21.13;4.40;;;;;;;4.53;92.00;98743.22;4950545;28;20089;-51
2021/01/30 07:29:37;;;;;;;15.93;4.45;;;;;;;4.53;92.17;98750.66;5005139;28;20446;-52
2021/01/30 07:32:06;;;;;;;17.65;5.43;;;;;;;4.56;92.06;98749.94;5027235;28;20050;-48
2021/01/30 07:34:53;;;;;;;19.60;4.30;;;;;;;4.54;92.20;98742.09;5023647;28;20049;-47
2021/01/30 07:37:34;;;;;;;25.40;6.70;;;;;;;4.54;92.38;98746.78;5002215;28;20100;-51
2021/01/30 07:40:05;;;;;;;20.98;5.13;;;;;;;4.53;92.02;98753.38;5017889;28;20069;-47
2021/01/30 07:42:43;;;;;;;20.55;4.70;;;;;;;4.53;92.08;98761.59;4996094;28;20043;-49
2021/01/30 07:45:27;;;;;;;7.40;3.20;;;;;;;4.49;92.00;98749.78;4994042;28;20137;-50
2021/01/30 07:48:24;;;;;;;18.33;4.20;;;;;;;4.46;92.05;98761.44;4996014;28;20042;-48
2021/01/30 07:50:54;;;;;;;30.95;4.78;;;;;;;4.44;92.07;98752.78;5010576;28;20136;-51
2021/01/30 07:53:27;;;;;;;26.50;5.72;;;;;;;4.45;92.17;98765.34;5034978;28;20037;-47
2021/01/30 07:56:08;;;;;;;18.80;4.97;;;;;;;4.40;92.05;98757.38;5015612;28;20046;-49
2021/01/30 07:59:06;;;;;;;30.10;4.82;;;;;;;4.40;92.30;98762.84;5014518;28;20550;-50
2021/01/30 08:01:54;;;;;;;23.10;6.55;;;;;;;4.41;92.23;98758.97;5008217;28;20046;-49
2021/01/30 08:04:52;;;;;;;20.60;5.03;;;;;;;4.41;92.22;98776.19;5002740;28;20080;-50
2021/01/30 08:07:27;;;;;;;14.23;4.38;;;;;;;4.39;92.06;98769.50;4998982;28;20044;-52
2021/01/30 08:10:30;;;;;;;22.85;5.03;;;;;;;4.39;92.38;98773.03;5005914;28;20133;-48
2021/01/30 08:13:22;;;;;;;9.40;2.58;;;;;;;4.37;92.28;98774.53;4977362;28;20050;-47
2021/01/30 08:16:01;;;;;;;16.13;3.57;;;;;;;4.32;91.79;98768.16;5007649;28;20138;-48
2021/01/30 08:18:44;;;;;;;15.50;3.80;;;;;;;4.32;92.49;98784.59;5032981;28;20046;-47
2021/01/30 08:21:27;;;;;;;20.50;4.28;;;;;;;4.31;92.32;98776.72;5016046;28;20053;-49
2021/01/30 08:24:05;;;;;;;31.92;5.30;;;;;;;4.34;92.78;98789.72;5011889;28;20113;-50
2021/01/30 08:26:35;;;;;;;24.73;4.35;;;;;;;4.29;92.18;98785.28;5001793;28;20450;-50
2021/01/30 08:29:16;;;;;;;12.80;4.03;;;;;;;4.26;92.15;98790.69;5029277;28;20045;-49
2021/01/30 08:31:47;;;;;;;18.58;5.82;;;;;;;4.25;92.47;98789.88;5014603;28;20580;-48
2021/01/30 08:34:19;;;;;;;21.10;3.97;;;;;;;4.25;92.54;98803.56;5015049;28;20579;-50
2021/01/30 08:36:49;;;;;;;29.42;4.22;;;;;;;4.25;92.36;98806.31;5027286;28;20080;-51
2021/01/30 08:39:36;;;;;;;9.27;3.55;;;;;;;4.22;92.53;98812.50;5015216;28;20048;-50
2021/01/30 08:42:07;;;;;;;9.82;2.97;;;;;;;4.18;92.13;98789.66;5015480;28;20037;-49
2021/01/30 08:44:52;;;;;;;12.00;3.00;;;;;;;4.15;91.81;98786.84;4999064;28;20096;-49
2021/01/30 08:47:23;;;;;;;13.10;3.45;;;;;;;4.13;91.94;98809.09;5032640;28;20045;-46
2021/01/30 08:49:57;;;;;;;18.83;4.07;;;;;;;4.12;92.13;98810.25;5013411;28;20128;-47
2021/01/30 08:52:35;;;;;;;15.05;4.65;;;;;;;4.14;91.93;98813.44;5012475;28;20559;-47
2021/01/30 08:55:46;;;;;;;16.85;3.17;;;;;;;4.11;92.36;98821.56;5016613;28;20040;-49
2021/01/30 08:58:37;;;;;;;22.00;3.53;;;;;;;4.04;91.84;98813.94;5033338;28;20068;-47
2021/01/30 09:01:22;;;;;;;11.90;3.30;;;;;;;4.02;92.15;98823.66;5026910;28;20132;-47
2021/01/30 09:03:48;;;;;;;18.00;3.15;;;;;;;4.01;91.92;98822.06;4999724;28;20042;-47
2021/01/30 09:06:40;;;;;;;14.13;3.17;;;;;;;4.00;92.10;98834.94;5012602;28;20121;-48
2021/01/30 09:09:12;;;;;;;12.80;2.67;;;;;;;3.96;91.82;98827.78;4997931;28;20084;-48
2021/01/30 09:11:47;;;;;;;13.93;3.10;;;;;;;3.96;91.88;98836.00;5013772;28;20141;-50
2021/01/30 09:14:16;;;;;;;11.80;3.25;;;;;;;3.93;91.96;98836.69;5013514;28;20121;-49
2021/01/30 09:16:58;;;;;;;14.50;2.67;;;;;;;3.89;91.89;98820.16;5013855;28;20084;-49
2021/01/30 09:19:37;;;;;;;6.78;1.83;;;;;;;3.84;91.68;98842.28;4994073;28;20116;-47
2021/01/30 09:22:18;;;;;;;18.98;3.20;;;;;;;3.84;91.99;98823.13;4982996;28;20141;-51
2021/01/30 09:24:50;;;;;;;14.65;4.40;;;;;;;3.82;92.03;98852.00;5012948;28;20080;-47
2021/01/30 09:27:29;;;;;;;16.80;3.58;;;;;;;3.81;92.01;98851.22;5013104;28;20108;-49
2021/01/30 09:30:02;;;;;;;20.30;2.95;;;;;;;3.80;91.53;98852.34;5024134;28;20041;-48
2021/01/30 09:32:41;;;;;;;9.82;2.35;;;;;;;3.76;91.63;98854.19;5023281;28;20546;-46
2021/01/30 09:35:13;;;;;;;19.13;3.42;;;;;;;3.75;92.03;98865.47;5020552;28;20046;-47
2021/01/30 09:37:40;;;;;;;10.73;2.45;;;;;;;3.80;92.07;98855.09;5004403;28;20444;-46
2021/01/30 09:40:18;;;;;;;10.27;2.70;;;;;;;3.75;91.43;98860.81;4993194;28;20095;-48
2021/01/30 09:43:03;;;;;;;7.13;1.70;;;;;;;3.72;91.73;98866.97;4998439;28;20041;-48
2021/01/30 09:45:31;;;;;;;19.33;5.15;;;;;;;3.72;91.99;98874.38;5016355;28;20128;-49
2021/01/30 09:48:01;;;;;;;12.98;2.85;;;;;;;3.68;91.93;98890.69;5009507;28;20074;-52
2021/01/30 09:50:38;;;;;;;14.60;3.80;;;;;;;3.67;92.00;98895.38;4995646;28;20092;-47
2021/01/30 09:53:09;;;;;;;10.35;2.50;;;;;;;3.70;91.60;98885.69;5008964;28;20074;-47
2021/01/30 09:55:37;;;;;;;14.70;2.10;;;;;;;3.71;91.91;98906.41;5015744;28;20046;-47
2021/01/30 09:58:11;;;;;;;19.48;3.78;;;;;;;3.72;92.02;98929.09;5009669;28;20046;-51
2021/01/30 10:00:43;;;;;;;18.15;2.92;;;;;;;3.72;91.86;98904.47;5009286;28;20052;-50
2021/01/30 10:03:17;;;;;;;14.05;2.25;;;;;;;3.71;91.91;98906.41;5009088;28;20111;-54
2021/01/30 10:05:45;;;;;;;26.25;4.13;;;;;;;3.74;91.79;98922.16;5010327;28;20046;-50
2021/01/30 10:08:29;;;;;;;15.75;1.95;;;;;;;3.67;91.84;98916.47;4995164;28;20053;-48
2021/01/30 10:11:01;;;;;;;11.82;4.15;;;;;;;3.67;91.83;98921.94;5016589;28;20072;-52
2021/01/30 10:13:28;;;;;;;14.45;3.40;;;;;;;3.68;91.86;98918.03;5016346;28;20049;-47
2021/01/30 10:15:56;;;;;;;17.65;3.63;;;;;;;3.69;91.76;98917.72;5001643;28;20517;-52
2021/01/30 10:18:26;;;;;;;9.95;2.75;;;;;;;3.66;91.57;98931.28;5013645;28;20070;-51
2021/01/30 10:20:57;;;;;;;12.52;1.73;;;;;;;3.63;91.33;98910.06;5009513;28;20095;-48
2021/01/30 10:23:41;;;;;;;12.50;2.63;;;;;;;3.59;91.24;98939.28;5019930;28;20040;-47
2021/01/30 10:26:26;;;;;;;16.08;3.10;;;;;;;3.59;91.52;98947.47;5029256;28;20045;-57
2021/01/30 10:29:01;;;;;;;19.80;4.55;;;;;;;3.54;91.53;98934.03;5026410;28;20045;-50
2021/01/30 10:31:41;;;;;;;23.00;5.60;;;;;;;3.55;91.67;98952.03;5013257;28;20220;-51
2021/01/30 10:34:10;;;;;;;18.58;4.13;;;;;;;3.57;91.55;98945.06;5019186;28;20041;-50
2021/01/30 10:36:39;;;;;;;15.77;2.75;;;;;;;3.55;91.30;98957.50;5008535;28;20160;-58
2021/01/30 10:39:06;;;;;;;15.43;3.63;;;;;;;3.53;91.24;98948.84;5007655;28;20056;-54
2021/01/30 10:41:33;;;;;;;10.48;2.65;;;;;;;3.57;91.80;98966.19;5009663;28;20081;-50
2021/01/30 10:44:03;;;;;;;13.55;2.88;;;;;;;3.58;91.68;98962.28;5015275;28;20092;-49
2021/01/30 10:46:40;;;;;;;15.50;3.17;;;;;;;3.61;91.50;98961.63;5025860;28;20132;-55
2021/01/30 10:49:20;;;;;;;21.48;3.97;;;;;;;3.61;91.79;98965.16;4997520;28;20042;-51
2021/01/30 10:51:48;;;;;;;13.07;2.50;;;;;;;3.61;91.56;98981.56;5007592;28;20153;-53
2021/01/30 10:54:25;;;;;;;18.40;3.97;;;;;;;3.62;91.96;98982.38;5020992;28;20042;-50
2021/01/30 10:57:21;;;;;;;18.27;3.47;;;;;;;3.61;91.75;98978.84;5007971;28;20057;-53
2021/01/30 11:00:16;;;;;;;13.52;3.42;;;;;;;3.64;91.80;98988.28;5027612;28;20079;-48
2021/01/30 11:02:47;;;;;;;12.70;3.50;;;;;;;3.64;91.44;98983.63;5016281;28;20132;-52
2021/01/30 11:05:20;;;;;;;24.60;3.67;;;;;;;3.62;91.04;98968.69;4996171;28;20041;-50
2021/01/30 11:07:53;;;;;;;17.77;4.00;;;;;;;3.65;91.27;98995.38;5018608;28;20065;-53
2021/01/30 11:10:43;;;;;;;12.38;3.33;;;;;;;3.69;91.44;98993.53;5018681;28;20073;-55
2021/01/30 11:13:19;;;;;;;20.13;4.85;;;;;;;3.71;91.79;99013.16;4980410;28;20109;-53
2021/01/30 11:15:47;;;;;;;22.70;4.00;;;;;;;3.71;91.27;99015.09;5017879;28;20921;-51
2021/01/30 11:18:34;;;;;;;17.70;3.67;;;;;;;3.70;91.60;99014.31;5011519;28;20439;-53
2021/01/30 11:21:02;;;;;;;13.48;3.10;;;;;;;3.71;91.25;99037.00;5007607;28;20045;-49
2021/01/30 11:23:41;;;;;;;16.75;3.75;;;;;;;3.73;91.46;99035.53;5011611;28;20046;-53
2021/01/30 11:26:16;;;;;;;10.13;2.22;;;;;;;3.74;91.22;99036.28;4989491;28;20046;-52
2021/01/30 11:28:45;;;;;;;10.57;2.72;;;;;;;3.77;91.36;99024.66;5015471;28;20045;-55
2021/01/30 11:31:12;;;;;;;17.50;3.67;;;;;;;3.75;91.65;99029.69;5010417;28;20492;-55
2021/01/30 11:33:38;;;;;;;18.83;3.72;;;;;;;3.76;91.71;99032.06;5013822;28;20066;-53
2021/01/30 11:36:11;;;;;;;23.33;4.53;;;;;;;3.79;91.40;99034.13;5018631;28;20423;-51
2021/01/30 11:38:38;;;;;;;16.02;3.95;;;;;;;3.81;91.42;99042.03;5015271;28;20096;-52
2021/01/30 11:41:04;;;;;;;7.10;1.38;;;;;;;3.76;91.36;99048.50;5002887;28;20137;-53
2021/01/30 11:43:30;;;;;;;14.93;2.53;;;;;;;3.74;91.02;99049.97;5026106;28;20049;-51
2021/01/30 11:45:58;;;;;;;10.77;2.47;;;;;;;3.75;91.24;99049.66;5007981;28;20042;-51
2021/01/30 11:48:25;;;;;;;13.70;3.42;;;;;;;3.74;91.42;99039.84;5009100;28;20416;-55
2021/01/30 11:50:52;;;;;;;22.67;4.25;;;;;;;3.73;90.99;99049.19;5007420;28;20054;-55
2021/01/30 11:53:23;;;;;;;26.42;5.22;;;;;;;3.77;91.11;99049.31;5014173;28;20135;-48
2021/01/30 11:55:51;;;;;;;22.90;5.45;;;;;;;3.79;90.98;99060.69;5006257;28;20050;-51
2021/01/30 11:58:19;;;;;;;14.77;3.47;;;;;;;3.81;91.01;99064.72;5021401;28;20483;-50
2021/01/30 12:00:46;;;;;;;16.83;4.75;;;;;;;3.84;91.58;99064.00;5026622;28;20582;-53
2021/01/30 12:03:38;;;;;;;16.48;2.92;;;;;;;3.81;90.82;99059.25;5010889;28;20045;-49
2021/01/30 12:06:05;;;;;;;19.50;3.78;;;;;;;3.81;91.16;99069.38;5014959;28;20083;-49
2021/01/30 12:08:32;;;;;;;10.23;2.72;;;;;;;3.82;90.98;99079.97;5010047;28;20117;-52
2021/01/30 12:10:58;;;;;;;13.20;3.13;;;;;;;3.84;91.31;99088.66;5011079;28;20156;-50